Time;durP1;ratioP1;P1;durP2;ratioP2;P2;SDS_P1;SDS_P2;PMS_P1;PMS_P2;Temp;Humidity;BMP_temperature;BMP_pressure;BME280_temperature;BME280_humidity;BME280_pressure;Samples;Min_cycle;Max_cycle;Signal;HPM_P1;HPM_P2
2022/06/15 00:00:35;;;;;;;3.37;2.80;;;;;;;24.42;52.94;101108.09;1683085;85;21959;-86
2022/06/15 00:03:01;;;;;;;3.33;2.83;;;;;;;24.41;52.92;101107.28;1683162;85;21581;-86
2022/06/15 00:05:28;;;;;;;3.30;2.87;;;;;;;24.41;52.92;101104.50;1683130;85;21159;-86
2022/06/15 00:07:54;;;;;;;4.72;3.35;;;;;;;24.41;52.89;101105.89;1654460;86;21185;-86
2022/06/15 00:10:21;;;;;;;3.30;2.98;;;;;;;24.42;52.89;101108.09;1654584;86;21086;-86
2022/06/15 00:12:47;;;;;;;3.05;2.75;;;;;;;24.41;52.88;101099.50;1606111;86;21650;-87
2022/06/15 00:15:17;;;;;;;2.90;2.60;;;;;;;24.41;52.88;101097.55;1683070;85;21435;-86
2022/06/15 00:17:46;;;;;;;3.37;2.93;;;;;;;24.41;52.87;101096.72;1683475;85;21159;-86
2022/06/15 00:20:12;;;;;;;2.70;2.50;;;;;;;24.40;52.87;101098.69;1654459;86;21086;-86
2022/06/15 00:22:40;;;;;;;3.35;2.70;;;;;;;24.40;52.85;101091.73;1631343;87;21087;-86
2022/06/15 00:25:08;;;;;;;3.40;2.55;;;;;;;24.40;52.81;101091.73;1683414;84;21178;-86
2022/06/15 00:27:35;;;;;;;3.62;2.90;;;;;;;24.41;52.74;101095.33;1685372;84;21093;-86
2022/06/15 00:30:08;;;;;;;4.78;2.50;;;;;;;24.40;52.67;101088.95;1686954;84;21204;-86
2022/06/15 00:32:32;;;;;;;3.25;2.70;;;;;;;24.40;52.65;101090.34;1683851;84;21053;-85
2022/06/15 00:34:58;;;;;;;3.02;2.37;;;;;;;24.40;52.62;101088.17;1685487;84;21066;-86
2022/06/15 00:37:25;;;;;;;3.52;2.67;;;;;;;24.39;52.49;101081.78;1685549;84;21125;-86
2022/06/15 00:39:54;;;;;;;2.85;2.40;;;;;;;24.39;52.42;101084.56;1686141;84;21101;-86
2022/06/15 00:42:21;;;;;;;3.10;2.67;;;;;;;24.39;52.34;101083.17;1676593;85;21252;-86
2022/06/15 00:44:49;;;;;;;2.80;2.42;;;;;;;24.39;52.27;101072.62;1654310;86;21113;-86
2022/06/15 00:47:25;;;;;;;3.65;2.75;;;;;;;24.39;52.20;101072.05;1654276;85;21084;-86
2022/06/15 00:50:06;;;;;;;2.72;2.47;;;;;;;24.40;52.13;101074.26;1654168;86;21002;-86
2022/06/15 00:52:44;;;;;;;3.10;2.50;;;;;;;24.39;52.04;101065.09;1654603;86;21167;-86
2022/06/15 00:55:25;;;;;;;3.30;2.60;;;;;;;24.38;52.01;101071.80;1654245;86;21409;-87
2022/06/15 00:57:52;;;;;;;4.17;2.50;;;;;;;24.38;51.98;101066.24;1653888;86;21519;-86
2022/06/15 01:00:21;;;;;;;2.70;2.30;;;;;;;24.37;51.96;101064.61;1653964;86;21580;-87
2022/06/15 01:02:48;;;;;;;3.45;2.60;;;;;;;24.39;51.90;101062.89;1653896;86;21052;-86
2022/06/15 01:05:25;;;;;;;2.65;2.30;;;;;;;24.38;51.87;101052.91;1654234;86;21053;-86
2022/06/15 01:08:03;;;;;;;3.55;2.52;;;;;;;24.37;51.87;101059.62;1652941;85;21942;-86
2022/06/15 01:10:52;;;;;;;3.30;2.70;;;;;;;24.38;51.85;101058.47;1650127;85;21590;-86
2022/06/15 01:13:24;;;;;;;4.03;2.37;;;;;;;24.36;51.86;101061.58;1653551;86;21108;-87
2022/06/15 01:16:20;;;;;;;3.45;2.45;;;;;;;24.36;51.84;101059.38;1654226;86;21104;-86
2022/06/15 01:19:07;;;;;;;3.58;2.70;;;;;;;24.37;51.83;101065.18;1660112;84;21077;-86
2022/06/15 01:21:44;;;;;;;3.20;2.20;;;;;;;24.35;51.83;101064.14;1687478;84;21160;-86
2022/06/15 01:24:48;;;;;;;3.37;2.37;;;;;;;24.35;51.82;101062.75;1692252;84;21512;-86
2022/06/15 01:27:57;;;;;;;3.33;2.40;;;;;;;24.35;51.80;101064.72;1663575;86;21094;-87
2022/06/15 01:30:55;;;;;;;2.33;2.08;;;;;;;24.35;51.86;101057.77;1663244;86;22354;-86
2022/06/15 01:33:59;;;;;;;3.17;2.08;;;;;;;24.34;51.78;101061.12;1663631;86;21145;-86
2022/06/15 01:36:45;;;;;;;4.92;2.27;;;;;;;24.32;51.77;101053.67;1691829;84;22073;-87
2022/06/15 01:39:25;;;;;;;3.77;2.72;;;;;;;24.32;51.74;101052.28;1663354;86;21121;-86
2022/06/15 01:42:06;;;;;;;2.65;2.10;;;;;;;24.32;51.77;101053.67;1692305;84;21537;-86
2022/06/15 01:44:37;;;;;;;4.12;2.37;;;;;;;24.31;51.75;101052.64;1664011;86;21156;-86
2022/06/15 01:47:06;;;;;;;;;;;;;;;24.31;51.73;101057.63;1694242;84;21120;-87
2022/06/15 01:49:48;;;;;;;2.85;2.10;;;;;;;24.30;51.63;101060.73;1692180;83;21109;-86
2022/06/15 01:52:16;;;;;;;3.10;2.65;;;;;;;24.29;51.71;101062.70;1662583;85;21121;-86
2022/06/15 01:54:47;;;;;;;2.45;2.15;;;;;;;24.30;51.71;101068.50;1663438;86;21528;-87
2022/06/15 01:57:14;;;;;;;4.92;2.60;;;;;;;24.30;51.70;101064.91;1663673;86;21086;-86
2022/06/15 01:59:47;;;;;;;3.10;2.50;;;;;;;24.30;51.71;101064.33;1663487;86;21054;-86
2022/06/15 02:02:27;;;;;;;2.60;2.20;;;;;;;24.30;51.69;101069.89;1663584;85;21738;-86
2022/06/15 02:05:25;;;;;;;2.80;2.35;;;;;;;24.30;51.67;101064.33;1664434;84;21170;-86
2022/06/15 02:08:18;;;;;;;2.77;2.12;;;;;;;24.31;51.60;101069.33;1692341;84;21579;-86
2022/06/15 02:11:08;;;;;;;2.87;2.17;;;;;;;24.29;51.51;101069.65;1663246;84;21115;-86
2022/06/15 02:13:52;;;;;;;2.92;2.42;;;;;;;24.30;51.46;101074.06;1663860;86;21099;-86
2022/06/15 02:16:26;;;;;;;2.40;2.10;;;;;;;24.30;51.47;101082.98;1663351;86;21208;-86
2022/06/15 02:18:52;;;;;;;3.10;2.22;;;;;;;24.29;51.49;101075.21;1634979;86;21111;-86
2022/06/15 02:21:19;;;;;;;2.60;2.08;;;;;;;24.29;51.50;101083.55;1690540;84;21082;-86
2022/06/15 02:23:49;;;;;;;3.05;2.20;;;;;;;24.30;51.48;101086.58;1682782;85;21632;-86
2022/06/15 02:26:16;;;;;;;2.62;1.98;;;;;;;24.30;51.50;101084.37;1650160;87;21030;-86
2022/06/15 02:28:47;;;;;;;3.65;2.15;;;;;;;24.30;51.50;101086.58;1630378;87;21570;-86
2022/06/15 02:31:13;;;;;;;3.72;2.30;;;;;;;24.30;51.50;101093.53;1649542;87;21068;-86
2022/06/15 02:33:51;;;;;;;2.60;1.98;;;;;;;24.31;51.45;101097.13;1632965;87;21104;-86
2022/06/15 02:36:17;;;;;;;4.22;2.25;;;;;;;24.30;51.29;101092.14;1632685;87;21520;-86
2022/06/15 02:38:46;;;;;;;3.60;2.17;;;;;;;24.31;51.13;101096.56;1633280;87;21092;-86
2022/06/15 02:41:12;;;;;;;2.58;1.98;;;;;;;24.31;51.07;101106.29;1682904;84;21871;-86
2022/06/15 02:43:39;;;;;;;2.15;1.75;;;;;;;24.31;51.00;101099.91;1661026;86;21015;-86
2022/06/15 02:46:05;;;;;;;2.45;1.80;;;;;;;24.31;50.89;101107.68;1682809;85;21090;-87
2022/06/15 02:48:31;;;;;;;2.02;1.62;;;;;;;24.31;50.85;101120.77;1682672;85;21624;-86
2022/06/15 02:51:09;;;;;;;2.65;1.70;;;;;;;24.32;50.73;101123.19;1661255;86;21577;-86
2022/06/15 02:53:35;;;;;;;3.17;1.85;;;;;;;24.32;50.71;101121.80;1682907;85;21616;-86
2022/06/15 02:56:02;;;;;;;2.55;2.10;;;;;;;24.32;50.71;101123.77;1662525;85;21037;-86
2022/06/15 02:58:35;;;;;;;2.75;1.87;;;;;;;24.31;50.74;101122.98;1682944;85;21101;-86
2022/06/15 03:01:02;;;;;;;2.37;1.75;;;;;;;24.31;50.71;101128.53;1663974;85;21077;-86
2022/06/15 03:03:28;;;;;;;2.45;2.00;;;;;;;24.31;50.68;101124.37;1650105;87;21102;-86
2022/06/15 03:05:55;;;;;;;2.72;1.90;;;;;;;24.31;50.65;101128.53;1650301;85;21152;-86
2022/06/15 03:08:21;;;;;;;2.67;2.15;;;;;;;24.32;50.60;101128.75;1610154;88;21084;-86
2022/06/15 03:10:52;;;;;;;2.75;1.98;;;;;;;24.31;50.61;101122.98;1682827;84;21442;-87
2022/06/15 03:13:19;;;;;;;4.55;2.20;;;;;;;24.33;50.67;101124.02;1650310;87;21074;-86
2022/06/15 03:15:46;;;;;;;2.25;2.00;;;;;;;24.31;50.67;101129.92;1650107;86;21078;-86
2022/06/15 03:18:12;;;;;;;2.60;2.10;;;;;;;24.33;50.71;101129.57;1633328;87;21205;-86
2022/06/15 03:20:39;;;;;;;3.33;2.00;;;;;;;24.31;50.72;101131.31;1633441;87;21515;-86
2022/06/15 03:23:06;;;;;;;2.37;1.90;;;;;;;24.32;50.72;101137.09;1664114;85;21553;-87
2022/06/15 03:25:34;;;;;;;2.62;2.00;;;;;;;24.31;50.72;101137.45;1705241;84;21029;-86
2022/06/15 03:28:01;;;;;;;3.22;2.20;;;;;;;24.31;50.73;101135.48;1671270;85;21093;-86
2022/06/15 03:30:27;;;;;;;3.42;2.25;;;;;;;24.30;50.74;101138.02;1617336;87;21072;-87
2022/06/15 03:32:53;;;;;;;2.17;1.98;;;;;;;24.31;50.74;101145.22;1705555;84;21069;-87
2022/06/15 03:35:20;;;;;;;2.20;1.90;;;;;;;24.30;50.76;101142.19;1698257;84;21082;-86
2022/06/15 03:37:49;;;;;;;3.22;2.00;;;;;;;24.31;50.76;101145.80;1671415;85;21081;-86
2022/06/15 03:40:15;;;;;;;3.37;2.25;;;;;;;24.31;50.79;101145.80;1705232;82;21095;-87
2022/06/15 03:42:41;;;;;;;3.90;2.05;;;;;;;24.30;50.79;101144.97;1671750;85;21524;-87
2022/06/15 03:45:11;;;;;;;4.35;1.80;;;;;;;24.31;50.83;101144.41;1705642;84;21048;-86
2022/06/15 03:47:37;;;;;;;3.27;1.85;;;;;;;24.31;50.85;101156.34;1672341;84;21160;-87
2022/06/15 03:50:04;;;;;;;2.15;1.87;;;;;;;24.32;50.89;101155.73;1671373;85;21145;-86
2022/06/15 03:52:30;;;;;;;3.08;2.10;;;;;;;24.31;50.91;101154.13;1698084;84;21066;-86
2022/06/15 03:54:57;;;;;;;2.27;2.00;;;;;;;24.31;50.93;101155.53;1671326;85;21828;-86
2022/06/15 03:57:23;;;;;;;2.98;2.22;;;;;;;24.30;50.94;101156.09;1671340;85;21022;-86
2022/06/15 03:59:50;;;;;;;3.98;1.98;;;;;;;24.30;50.95;101142.77;1698307;84;21085;-87
2022/06/15 04:02:16;;;;;;;4.95;1.95;;;;;;;24.30;50.90;101149.72;1671134;85;20975;-86
2022/06/15 04:04:43;;;;;;;2.87;1.90;;;;;;;24.30;50.88;101146.36;1698402;84;21072;-86
2022/06/15 04:08:34;;;;;;;2.35;1.90;;;;;;;24.30;50.87;101143.58;1671317;85;21599;-87
2022/06/15 04:09:41;;;;;;;3.02;2.00;;;;;;;24.29;50.86;101143.34;1693924;84;21575;-86
2022/06/15 04:12:11;;;;;;;3.42;2.00;;;;;;;24.30;50.83;101146.36;1705692;84;21467;-87
2022/06/15 04:14:37;;;;;;;3.50;1.77;;;;;;;24.30;50.81;101157.48;1698499;84;21081;-86
2022/06/15 04:17:04;;;;;;;2.17;1.90;;;;;;;24.29;50.81;101151.67;1705178;84;21135;-86
2022/06/15 04:19:32;;;;;;;3.42;2.35;;;;;;;24.30;50.80;101153.89;1671602;85;21180;-87
2022/06/15 04:21:59;;;;;;;2.08;1.87;;;;;;;24.29;50.82;101151.67;1708349;82;21057;-87
2022/06/15 04:24:28;;;;;;;5.25;2.10;;;;;;;24.30;50.75;101159.45;1649846;87;21114;-88
2022/06/15 04:26:55;;;;;;;2.50;2.30;;;;;;;24.27;50.41;101156.77;1649870;87;21154;-87
2022/06/15 04:29:21;;;;;;;2.85;2.10;;;;;;;24.25;50.63;101160.45;1633520;87;21076;-87
2022/06/15 04:31:48;;;;;;;4.40;1.95;;;;;;;24.24;50.50;101159.37;1633303;87;21748;-87
2022/06/15 04:34:14;;;;;;;2.80;2.25;;;;;;;24.19;50.03;101155.42;1682997;85;21042;-88
2022/06/15 04:36:42;;;;;;;3.27;2.42;;;;;;;24.16;50.23;101160.23;1649111;85;21537;-87
2022/06/15 04:39:10;;;;;;;4.92;1.90;;;;;;;24.12;49.87;101162.27;1630030;87;21074;-88
2022/06/15 04:41:38;;;;;;;2.20;1.65;;;;;;;24.07;49.29;101161.63;1683380;85;21053;-87
2022/06/15 04:44:05;;;;;;;4.72;1.65;;;;;;;24.02;49.00;101165.97;1650149;87;21261;-87
2022/06/15 04:46:32;;;;;;;4.00;1.82;;;;;;;23.94;48.69;101162.64;1682904;85;21058;-87
2022/06/15 04:49:00;;;;;;;3.50;1.80;;;;;;;23.88;48.29;101161.21;1650176;87;21078;-87
2022/06/15 04:51:29;;;;;;;2.55;1.67;;;;;;;23.82;48.09;101164.73;1683300;85;21087;-87
2022/06/15 04:54:02;;;;;;;3.20;1.65;;;;;;;23.79;47.91;101167.36;1649955;87;21512;-87
2022/06/15 04:56:28;;;;;;;4.05;1.50;;;;;;;23.75;47.72;101168.60;1683189;84;21561;-87
2022/06/15 04:58:57;;;;;;;3.05;1.67;;;;;;;23.72;47.54;101171.23;1683247;85;21070;-86
2022/06/15 05:01:23;;;;;;;3.45;1.70;;;;;;;23.66;47.32;101171.39;1666484;85;20982;-87
2022/06/15 05:03:50;;;;;;;6.97;1.75;;;;;;;23.63;47.32;101172.63;1677440;85;21086;-87
2022/06/15 05:06:31;;;;;;;4.37;1.70;;;;;;;23.63;47.32;101165.69;1642316;86;21013;-87
2022/06/15 05:08:57;;;;;;;2.62;1.80;;;;;;;23.63;47.26;101167.89;1661587;85;21184;-88
2022/06/15 05:11:26;;;;;;;6.87;1.42;;;;;;;23.63;47.33;101167.89;1614848;86;21088;-87
2022/06/15 05:13:52;;;;;;;4.78;1.80;;;;;;;23.63;47.23;101177.62;1667163;85;21127;-87
2022/06/15 05:16:18;;;;;;;3.37;1.85;;;;;;;23.64;47.28;101177.02;1688575;83;21090;-87
2022/06/15 05:18:47;;;;;;;2.50;1.60;;;;;;;23.65;47.17;101185.03;1668651;83;21624;-87
2022/06/15 05:21:16;;;;;;;3.58;1.50;;;;;;;23.65;47.15;101181.44;1672559;85;21145;-86
2022/06/15 05:23:42;;;;;;;2.65;1.65;;;;;;;23.63;46.87;101185.95;1683859;84;21113;-86
2022/06/15 05:26:09;;;;;;;3.17;1.75;;;;;;;23.64;46.86;101179.23;1695647;84;21092;-86
2022/06/15 05:28:35;;;;;;;3.33;1.90;;;;;;;23.64;46.83;101188.95;1695606;84;21077;-86
2022/06/15 05:31:06;;;;;;;3.27;1.60;;;;;;;23.63;46.58;101188.73;1694318;84;21082;-86
2022/06/15 05:33:40;;;;;;;3.50;1.60;;;;;;;23.62;46.53;101191.83;1696373;83;21318;-86
2022/06/15 05:36:12;;;;;;;3.72;1.47;;;;;;;23.62;46.44;101198.20;1695949;84;21665;-87
2022/06/15 05:38:39;;;;;;;3.20;1.55;;;;;;;23.62;46.27;101198.20;1704876;83;21148;-86
2022/06/15 05:41:06;;;;;;;6.55;1.62;;;;;;;23.61;46.06;101201.30;1706352;83;21073;-86
2022/06/15 05:43:34;;;;;;;2.42;1.60;;;;;;;23.60;46.09;101201.86;1680385;84;21136;-87
2022/06/15 05:46:18;;;;;;;3.85;1.57;;;;;;;23.60;45.89;101199.09;1708456;82;21001;-86
2022/06/15 05:48:44;;;;;;;3.72;1.52;;;;;;;23.58;45.82;101208.34;1708750;83;21097;-86
2022/06/15 05:51:11;;;;;;;3.17;1.80;;;;;;;23.58;45.86;101211.11;1670122;85;21140;-86
2022/06/15 05:53:37;;;;;;;4.28;1.77;;;;;;;23.60;45.96;101217.14;1704848;84;21096;-86
2022/06/15 06:06:55;;;;;;;3.70;1.75;;;;;;;23.53;45.70;101237.66;1533724;92;21115;-87
2022/06/15 06:09:22;;;;;;;2.25;1.60;;;;;;;23.49;45.61;101243.63;1566907;87;21203;-87
2022/06/15 06:11:49;;;;;;;5.12;1.67;;;;;;;23.47;45.58;101245.89;1668227;85;21924;-87
2022/06/15 06:14:17;;;;;;;3.47;1.57;;;;;;;23.48;45.63;101247.53;1699436;82;21902;-87
2022/06/15 06:16:43;;;;;;;3.00;1.65;;;;;;;23.50;45.76;101252.78;1701774;83;21089;-86
2022/06/15 06:19:11;;;;;;;4.37;1.70;;;;;;;23.52;45.87;101254.07;1702019;83;21136;-87
2022/06/15 06:21:38;;;;;;;3.47;1.70;;;;;;;23.56;45.94;101250.06;1698518;83;21602;-86
2022/06/15 06:24:05;;;;;;;4.28;1.85;;;;;;;23.57;45.98;101248.92;1635356;86;21109;-87
2022/06/15 06:26:33;;;;;;;4.00;1.87;;;;;;;23.60;45.96;101252.43;1642978;86;21584;-85
2022/06/15 06:29:09;;;;;;;2.58;1.70;;;;;;;23.61;45.97;101254.07;1700222;83;21529;-85
2022/06/15 06:31:33;;;;;;;4.45;1.67;;;;;;;23.62;45.96;101255.71;1684436;83;21062;-86
2022/06/15 06:33:59;;;;;;;2.85;1.70;;;;;;;23.61;45.89;101256.28;1683879;84;21152;-85
2022/06/15 06:36:33;;;;;;;4.22;1.60;;;;;;;23.60;45.90;101256.03;1684438;84;21120;-87
2022/06/15 06:39:01;;;;;;;4.75;1.75;;;;;;;23.60;45.82;101257.42;1678249;83;21535;-86
2022/06/15 06:41:28;;;;;;;3.72;1.95;;;;;;;23.61;45.84;101257.67;1673936;85;21110;-85
2022/06/15 06:43:59;;;;;;;3.70;2.10;;;;;;;23.62;45.76;101259.31;1652024;86;21101;-85
2022/06/15 06:46:25;;;;;;;4.28;1.80;;;;;;;23.63;45.80;101259.56;1707474;81;21944;-86
2022/06/15 06:48:53;;;;;;;2.75;1.70;;;;;;;23.63;45.71;101256.78;1691995;83;21117;-84
2022/06/15 06:51:20;;;;;;;4.78;1.62;;;;;;;23.62;45.70;101260.70;1670981;85;21175;-84
2022/06/15 06:53:46;;;;;;;3.15;1.50;;;;;;;23.62;45.66;101261.27;1652863;85;21101;-85
2022/06/15 06:56:14;;;;;;;2.62;1.62;;;;;;;23.61;45.50;101270.17;1684325;84;21125;-86
2022/06/15 06:58:41;;;;;;;4.45;1.57;;;;;;;23.61;45.51;101265.19;1681617;83;21069;-86
2022/06/15 07:01:10;;;;;;;3.98;1.27;;;;;;;23.62;45.43;101262.09;1683807;83;21022;-86
2022/06/15 07:03:36;;;;;;;2.90;1.72;;;;;;;23.64;45.41;101257.01;1691812;82;21160;-85
2022/06/15 07:06:08;;;;;;;3.42;1.40;;;;;;;23.64;45.55;101258.39;1671026;83;21133;-85
2022/06/15 07:08:34;;;;;;;2.72;1.70;;;;;;;23.66;45.54;101261.67;1688269;82;21548;-86
2022/06/15 07:11:01;;;;;;;4.95;2.30;;;;;;;23.68;45.54;101262.72;1659804;83;21073;-85
2022/06/15 07:13:28;;;;;;;2.58;1.80;;;;;;;23.70;45.53;101258.23;1669108;84;21172;-84
2022/06/15 07:15:55;;;;;;;2.77;1.50;;;;;;;23.71;45.45;101270.98;1651693;84;21175;-84
2022/06/15 07:18:21;;;;;;;2.87;2.08;;;;;;;23.71;45.41;101269.03;1685624;85;21403;-85
2022/06/15 07:20:48;;;;;;;4.12;1.60;;;;;;;23.71;45.36;101267.64;1653228;85;21589;-85
2022/06/15 07:23:19;;;;;;;2.30;1.80;;;;;;;23.73;45.37;101266.73;1682520;83;21153;-86
2022/06/15 07:25:45;;;;;;;2.85;1.72;;;;;;;23.75;45.23;101270.01;1664229;83;21596;-85
2022/06/15 07:28:18;;;;;;;6.28;1.90;;;;;;;23.74;44.94;101268.37;1688427;83;21213;-85
2022/06/15 07:30:45;;;;;;;5.53;1.98;;;;;;;23.74;44.85;101268.37;1659532;85;21090;-84
2022/06/15 07:33:15;;;;;;;2.47;1.30;;;;;;;23.74;44.76;101263.38;1653751;85;21919;-85
2022/06/15 07:35:41;;;;;;;4.28;1.87;;;;;;;23.74;44.57;101271.72;1660540;85;21728;-84
2022/06/15 07:38:08;;;;;;;5.58;2.12;;;;;;;23.74;44.60;101270.33;1691769;84;21171;-84
2022/06/15 07:40:34;;;;;;;4.97;1.70;;;;;;;23.74;44.47;101272.53;1679381;85;21120;-85
2022/06/15 07:43:01;;;;;;;3.58;1.70;;;;;;;23.73;44.29;101274.23;1650802;86;21192;-85
2022/06/15 07:45:27;;;;;;;3.85;2.37;;;;;;;23.72;44.33;101268.46;1652722;86;21177;-84
2022/06/15 07:50:56;;;;;;;4.25;2.92;;;;;;;23.76;44.43;101273.61;1615484;87;21053;-85
2022/06/15 07:53:22;;;;;;;7.75;3.50;;;;;;;23.78;44.39;101275.47;1681454;85;21098;-87
2022/06/15 07:55:50;;;;;;;5.33;2.47;;;;;;;23.78;44.28;101274.90;1680605;85;21081;-85
2022/06/15 07:58:17;;;;;;;6.67;2.85;;;;;;;23.80;44.17;101274.59;1687615;83;21010;-85
2022/06/15 08:00:45;;;;;;;8.05;5.30;;;;;;;23.82;44.06;101280.61;1679952;85;21031;-85
2022/06/15 08:03:15;;;;;;;6.25;3.22;;;;;;;23.82;43.97;101288.95;1682258;83;21094;-85
2022/06/15 08:05:48;;;;;;;4.67;3.30;;;;;;;23.82;43.98;101284.78;1677357;83;21175;-85
2022/06/15 08:08:21;;;;;;;3.92;3.02;;;;;;;23.81;43.89;101283.96;1679926;85;21591;-86
2022/06/15 08:10:48;;;;;;;8.35;5.15;;;;;;;23.81;43.85;101288.13;1684835;83;21045;-84
2022/06/15 08:13:14;;;;;;;5.12;3.42;;;;;;;23.81;43.96;101287.31;1681206;82;21145;-84
2022/06/15 08:15:41;;;;;;;4.22;2.35;;;;;;;23.83;43.84;101287.81;1680822;83;21188;-86
2022/06/15 08:18:20;;;;;;;5.12;1.90;;;;;;;23.83;43.74;101291.41;1650191;85;21095;-85
2022/06/15 08:20:52;;;;;;;4.05;1.98;;;;;;;23.82;43.35;101293.12;1674881;85;21078;-85
2022/06/15 08:23:22;;;;;;;4.62;1.47;;;;;;;23.79;43.27;101289.61;1680910;83;21089;-85
2022/06/15 08:25:51;;;;;;;3.77;1.60;;;;;;;23.78;43.14;101285.19;1690312;83;21061;-85
2022/06/15 08:28:20;;;;;;;6.30;2.00;;;;;;;23.78;43.11;101292.14;1693915;83;21065;-86
2022/06/15 08:30:47;;;;;;;6.65;2.00;;;;;;;23.79;43.17;101289.05;1653441;84;21555;-86
2022/06/15 08:33:13;;;;;;;4.62;2.05;;;;;;;23.81;43.17;101290.09;1649701;86;21051;-86
2022/06/15 08:35:47;;;;;;;2.90;1.67;;;;;;;23.81;43.05;101288.70;1684861;83;21086;-85
2022/06/15 08:38:15;;;;;;;3.33;2.22;;;;;;;23.81;42.91;101292.86;1688079;83;21552;-87
2022/06/15 08:40:50;;;;;;;3.42;1.67;;;;;;;23.82;43.03;101286.98;1680012;83;21164;-85
2022/06/15 08:44:01;;;;;;;3.35;1.50;;;;;;;23.83;42.86;101284.47;1707742;83;21671;-85
2022/06/15 08:47:11;;;;;;;3.40;2.20;;;;;;;23.84;42.70;101286.11;1618483;88;21061;-85
2022/06/15 08:50:04;;;;;;;4.90;2.05;;;;;;;23.86;42.67;101285.19;1611217;87;21115;-85
2022/06/15 08:52:42;;;;;;;2.50;1.42;;;;;;;23.86;42.83;101286.58;1709277;83;21054;-85
2022/06/15 08:55:25;;;;;;;5.05;1.62;;;;;;;23.89;42.81;101290.08;1694165;83;21190;-85
2022/06/15 08:57:59;;;;;;;3.67;3.00;;;;;;;23.90;42.78;101298.67;1691278;83;21180;-86
2022/06/15 09:00:31;;;;;;;8.08;3.98;;;;;;;23.92;42.86;101292.23;1683511;81;21051;-85
2022/06/15 09:03:39;;;;;;;5.95;3.12;;;;;;;23.93;42.76;101298.61;1678439;84;21065;-84
2022/06/15 09:06:43;;;;;;;5.72;1.95;;;;;;;23.95;42.83;101297.12;1649277;85;21573;-85
2022/06/15 09:09:30;;;;;;;3.83;1.60;;;;;;;23.97;42.74;101299.58;1682608;83;21569;-84
2022/06/15 09:15:22;;;;;;;8.23;3.27;;;;;;;23.96;42.55;101298.76;1676818;83;21651;-86
2022/06/15 09:17:49;;;;;;;6.85;2.90;;;;;;;23.98;42.57;101300.63;1691141;83;21093;-85
2022/06/15 09:20:24;;;;;;;4.03;2.35;;;;;;;23.98;42.46;101299.23;1701146;83;21065;-84
2022/06/15 09:22:58;;;;;;;2.35;1.80;;;;;;;23.98;42.29;101299.80;1682735;84;21506;-85
2022/06/15 09:25:40;;;;;;;4.55;2.05;;;;;;;23.98;42.27;101301.19;1683623;83;21076;-85
2022/06/15 09:28:34;;;;;;;3.80;2.65;;;;;;;23.97;42.37;101304.57;1680539;85;21078;-85
2022/06/15 09:31:05;;;;;;;3.67;2.27;;;;;;;24.00;42.48;101307.25;1599636;88;21135;-85
2022/06/15 09:33:42;;;;;;;2.47;1.70;;;;;;;24.00;42.56;101304.47;1658026;85;21589;-86
2022/06/15 09:36:13;;;;;;;3.33;1.62;;;;;;;24.02;42.58;101309.11;1658664;84;21152;-86
2022/06/15 09:38:41;;;;;;;;;;;;;;;24.02;42.49;101304.94;1649553;85;22930;-86
2022/06/15 09:41:30;;;;;;;5.97;1.70;;;;;;;24.03;42.58;101310.75;1634261;86;20175;-85
2022/06/15 09:44:06;;;;;;;2.58;1.47;;;;;;;24.02;42.48;101310.50;1622572;86;21139;-85
2022/06/15 09:47:08;;;;;;;3.08;1.40;;;;;;;24.02;42.27;101305.77;1643968;86;21640;-85
2022/06/15 09:50:17;;;;;;;4.12;1.50;;;;;;;24.03;42.32;101303.23;1645067;85;21128;-85
2022/06/15 09:53:01;;;;;;;2.30;1.05;;;;;;;24.05;42.30;101305.70;1636440;86;21147;-85
2022/06/15 09:55:42;;;;;;;6.75;1.10;;;;;;;24.06;42.01;101308.73;1659245;84;21105;-85
2022/06/15 09:58:09;;;;;;;;;;;;;;;24.05;41.88;101312.08;1661695;86;21533;-86
2022/06/15 10:00:37;;;;;;;3.33;1.50;;;;;;;24.04;41.62;101306.27;1667444;85;20258;-85
2022/06/15 10:03:07;;;;;;;3.37;1.42;;;;;;;24.06;41.88;101304.56;1680588;85;21129;-84
2022/06/15 10:05:36;;;;;;;3.30;1.40;;;;;;;24.06;41.93;101305.95;1647362;87;21138;-84
2022/06/15 10:08:07;;;;;;;1.90;1.30;;;;;;;24.07;41.99;101306.98;1679667;84;21090;-85
2022/06/15 10:10:57;;;;;;;2.77;1.57;;;;;;;24.08;41.90;101307.24;1680957;83;21597;-85
2022/06/15 10:13:33;;;;;;;3.75;1.35;;;;;;;24.10;41.85;101310.49;1647694;85;21079;-85
2022/06/15 10:16:08;;;;;;;2.40;1.32;;;;;;;24.10;41.79;101304.94;1663029;85;21121;-86
2022/06/15 10:18:53;;;;;;;3.45;1.30;;;;;;;24.09;41.67;101305.28;1681118;83;21807;-85
2022/06/15 10:21:29;;;;;;;2.20;1.62;;;;;;;24.08;41.62;101298.91;1680386;83;21121;-84
2022/06/15 10:24:19;;;;;;;3.05;1.50;;;;;;;24.07;41.66;101295.88;1642021;85;21110;-85
2022/06/15 10:26:49;;;;;;;2.35;1.40;;;;;;;24.07;41.72;101295.05;1680553;84;21104;-86
2022/06/15 10:29:22;;;;;;;2.13;1.43;;;;;;;24.07;41.84;101290.31;1657925;85;21111;-86
2022/06/15 10:32:06;;;;;;;4.58;1.67;;;;;;;24.07;41.91;101286.71;1658946;86;21185;-86
2022/06/15 10:34:59;;;;;;;3.67;1.50;;;;;;;24.09;42.00;101298.33;1674874;85;21097;-86
2022/06/15 10:37:45;;;;;;;3.40;1.40;;;;;;;24.09;41.99;101291.38;1644232;86;21102;-86
2022/06/15 10:40:33;;;;;;;2.77;1.47;;;;;;;24.08;41.91;101294.73;1679665;83;21137;-86
2022/06/15 10:43:30;;;;;;;4.20;1.70;;;;;;;24.05;41.90;101282.89;1680554;83;21141;-86
2022/06/15 10:46:04;;;;;;;4.17;1.70;;;;;;;24.06;41.80;101285.10;1658658;85;21045;-84
2022/06/15 10:48:38;;;;;;;3.08;1.30;;;;;;;24.06;41.80;101278.16;1659340;86;21153;-86
2022/06/15 10:51:31;;;;;;;2.72;1.62;;;;;;;24.07;41.77;101280.58;1654554;86;21097;-86
2022/06/15 10:54:32;;;;;;;2.42;1.55;;;;;;;24.08;41.79;101276.66;1644479;87;21589;-86
2022/06/15 11:03:27;;;;;;;3.40;1.57;;;;;;;24.11;41.75;101264.05;1684578;83;21097;-86
2022/06/15 11:05:55;;;;;;;2.55;1.50;;;;;;;24.11;41.72;101271.83;1650683;85;21077;-87
2022/06/15 11:08:26;;;;;;;9.28;1.82;;;;;;;24.12;41.64;101263.73;1660122;86;21157;-86
2022/06/15 11:11:20;;;;;;;2.40;1.50;;;;;;;24.13;41.54;101265.38;1678889;85;21125;-86
2022/06/15 11:14:07;;;;;;;3.00;1.45;;;;;;;24.14;41.42;101266.20;1660649;85;21355;-86
2022/06/15 11:19:22;;;;;;;5.05;1.72;;;;;;;24.13;41.37;101255.64;1681388;85;20967;-86
2022/06/15 11:22:01;;;;;;;7.00;1.57;;;;;;;24.14;41.44;101251.70;1683099;83;21073;-85
2022/06/15 11:24:50;;;;;;;6.55;1.70;;;;;;;24.16;41.40;101254.76;1647185;85;21172;-86
2022/06/15 11:27:33;;;;;;;4.28;1.60;;;;;;;24.16;41.47;101255.58;1643817;86;23078;-86
2022/06/15 11:30:28;;;;;;;3.62;1.80;;;;;;;24.18;41.38;101253.87;1638650;86;21551;-86
2022/06/15 11:33:14;;;;;;;2.67;1.55;;;;;;;24.18;41.42;101247.73;1621612;87;21092;-87
2022/06/15 11:35:58;;;;;;;4.58;1.70;;;;;;;24.20;41.31;101241.25;1629676;86;21139;-86
2022/06/15 11:38:50;;;;;;;2.25;1.40;;;;;;;24.22;41.11;101243.14;1630667;86;21156;-86
2022/06/15 11:41:35;;;;;;;2.60;1.47;;;;;;;24.21;41.12;101237.33;1644271;87;21118;-86
2022/06/15 11:44:13;;;;;;;4.37;1.70;;;;;;;24.23;41.13;101240.58;1700631;83;21051;-86
2022/06/15 11:47:00;;;;;;;2.85;1.60;;;;;;;24.23;41.13;101230.85;1659222;85;21077;-85
2022/06/15 11:49:38;;;;;;;4.17;2.10;;;;;;;24.24;41.19;101237.23;1673392;83;21954;-85
2022/06/15 11:52:38;;;;;;;2.55;1.70;;;;;;;24.24;41.31;101235.27;1658529;85;21076;-86
2022/06/15 11:55:28;;;;;;;3.47;1.92;;;;;;;24.25;41.44;101231.92;1656652;84;21987;-85
2022/06/15 11:58:22;;;;;;;4.50;2.05;;;;;;;24.25;41.56;101228.57;1679204;85;21125;-86
2022/06/15 12:01:19;;;;;;;3.00;2.15;;;;;;;24.27;41.60;101233.81;1651243;85;34786;-85
2022/06/15 12:04:16;;;;;;;3.87;1.98;;;;;;;24.29;41.71;101231.50;1678349;85;21057;-85
2022/06/15 12:07:31;;;;;;;5.40;1.70;;;;;;;24.28;41.74;101218.16;1681585;83;21675;-85
2022/06/15 12:10:23;;;;;;;2.15;1.67;;;;;;;24.29;41.65;101217.02;1637722;85;21786;-84
2022/06/15 12:13:01;;;;;;;3.05;1.80;;;;;;;24.29;41.60;101218.41;1677241;85;21980;-85
2022/06/15 12:15:53;;;;;;;4.90;1.80;;;;;;;24.31;41.59;101217.52;1645932;85;21134;-86
2022/06/15 12:18:59;;;;;;;5.83;1.70;;;;;;;24.32;41.64;101219.13;1559501;89;21653;-85
2022/06/15 12:21:33;;;;;;;3.52;2.20;;;;;;;24.32;41.74;101221.91;1637930;86;21534;-85
2022/06/15 12:24:23;;;;;;;3.30;1.67;;;;;;;24.33;41.80;101224.12;1652082;85;21168;-84